Pagina principale
METAR-TAF:

METAR-TAF

Aeroporti :

Redstone Arsenal, Alabama, Stati Uniti

latitudine: 34-40-43N, longitudine: 086-41-05W, altezza: 209 m

Osservazione

Il bollettino è stato emesso 41 minuti fa, alle 13:58 UTC
Vento 7 kt da nord/nord-ovest
Temperature 4°C
Umidità 87%
Pressione 1024 hPa
Visibilità: 14.5 km
Nuvoloso ad un'altezza di 2200 ft
Cielo coperto ad un'altezza di 18000 ft

METAR: KHUA 181358Z AUTO 33007KT 9SM BKN022 OVC180 04/02 A3025 RMK AO2 SLP247 T00420024

Ora: 08:39 (14:39 UTC)


TAF: mancante

Osservazioni e previsioni meteorologiche di più di 4000 aeroporti (messaggi METAR e TAF).

Le stazioni disponibili sono rappresentate dai dischi gialli e rossi sulla carta.

Puntare il mouse per vedere il nome della stazione.

Clicca sopra per visualizzare le osservazioni e previsioni meteorologiche.

Per cambiare la mappa : fare clic sui pulsanti verdi con una croce nera per ingrandire, il pulsante verde con un trattino per diminuire, o sulla freccia verde per le mappe adiacenti.


METAR-TAF: